sensor_id;sensor_type;location;lat;lon;timestamp;pressure;altitude;pressure_sealevel;temperature;humidity
65280;BME280;51878;55.748;48.742;2023-04-03T00:00:31;99101.88;;;6.07;100.00
65280;BME280;51878;55.748;48.742;2023-04-03T00:05:34;99096.84;;;6.04;100.00
65280;BME280;51878;55.748;48.742;2023-04-03T00:10:36;99087.91;;;5.95;100.00
65280;BME280;51878;55.748;48.742;2023-04-03T00:15:40;99068.84;;;5.80;100.00
65280;BME280;51878;55.748;48.742;2023-04-03T00:20:42;99036.03;;;5.61;100.00
65280;BME280;51878;55.748;48.742;2023-04-03T00:25:45;98982.34;;;5.18;100.00
65280;BME280;51878;55.748;48.742;2023-04-03T00:30:49;99072.03;;;5.68;100.00
65280;BME280;51878;55.748;48.742;2023-04-03T00:35:51;99072.34;;;5.73;100.00
65280;BME280;51878;55.748;48.742;2023-04-03T00:40:59;99057.03;;;5.57;100.00
65280;BME280;51878;55.748;48.742;2023-04-03T00:46:02;99035.88;;;5.54;100.00
65280;BME280;51878;55.748;48.742;2023-04-03T00:51:06;99084.44;;;5.69;100.00
65280;BME280;51878;55.748;48.742;2023-04-03T00:56:11;99046.59;;;5.46;100.00
65280;BME280;51878;55.748;48.742;2023-04-03T01:01:18;99049.63;;;5.43;100.00
65280;BME280;51878;55.748;48.742;2023-04-03T01:06:42;99095.06;;;5.70;100.00
65280;BME280;51878;55.748;48.742;2023-04-03T01:11:44;99078.88;;;5.54;100.00
65280;BME280;51878;55.748;48.742;2023-04-03T01:16:53;99080.44;;;5.65;100.00
65280;BME280;51878;55.748;48.742;2023-04-03T01:22:14;99016.28;;;5.19;100.00
65280;BME280;51878;55.748;48.742;2023-04-03T01:27:20;99013.25;;;5.14;100.00
65280;BME280;51878;55.748;48.742;2023-04-03T01:32:23;99039.44;;;5.20;100.00
65280;BME280;51878;55.748;48.742;2023-04-03T01:37:25;99026.16;;;5.10;100.00
65280;BME280;51878;55.748;48.742;2023-04-03T01:42:27;99046.63;;;5.11;100.00
65280;BME280;51878;55.748;48.742;2023-04-03T01:47:29;99096.06;;;5.27;100.00
65280;BME280;51878;55.748;48.742;2023-04-03T01:52:31;98895.41;;;3.73;100.00
65280;BME280;51878;55.748;48.742;2023-04-03T01:57:33;99091.00;;;4.89;100.00
65280;BME280;51878;55.748;48.742;2023-04-03T02:02:36;99035.59;;;4.54;100.00
65280;BME280;51878;55.748;48.742;2023-04-03T02:07:38;98903.34;;;3.83;100.00
65280;BME280;51878;55.748;48.742;2023-04-03T02:12:40;99090.34;;;4.87;100.00
65280;BME280;51878;55.748;48.742;2023-04-03T02:17:42;99081.22;;;4.80;100.00
65280;BME280;51878;55.748;48.742;2023-04-03T02:22:45;99033.19;;;4.43;100.00
65280;BME280;51878;55.748;48.742;2023-04-03T02:27:47;99074.94;;;4.63;100.00
65280;BME280;51878;55.748;48.742;2023-04-03T02:32:49;98983.09;;;3.99;100.00
65280;BME280;51878;55.748;48.742;2023-04-03T02:37:51;99094.09;;;4.68;100.00
65280;BME280;51878;55.748;48.742;2023-04-03T02:42:53;99080.03;;;4.48;100.00
65280;BME280;51878;55.748;48.742;2023-04-03T02:47:55;98980.63;;;3.88;100.00
65280;BME280;51878;55.748;48.742;2023-04-03T02:52:57;99096.50;;;4.53;100.00
65280;BME280;51878;55.748;48.742;2023-04-03T02:57:59;99016.31;;;4.06;100.00
65280;BME280;51878;55.748;48.742;2023-04-03T03:03:02;99085.91;;;4.52;100.00
65280;BME280;51878;55.748;48.742;2023-04-03T03:08:04;99029.50;;;4.18;100.00
65280;BME280;51878;55.748;48.742;2023-04-03T03:13:06;98990.66;;;4.04;100.00
65280;BME280;51878;55.748;48.742;2023-04-03T03:18:08;99056.34;;;4.44;100.00
65280;BME280;51878;55.748;48.742;2023-04-03T03:23:10;99009.06;;;4.25;100.00
65280;BME280;51878;55.748;48.742;2023-04-03T03:28:12;99071.72;;;4.60;100.00
65280;BME280;51878;55.748;48.742;2023-04-03T03:33:14;98990.00;;;4.10;100.00
65280;BME280;51878;55.748;48.742;2023-04-03T03:38:16;98916.88;;;3.73;100.00
65280;BME280;51878;55.748;48.742;2023-04-03T03:43:21;99039.16;;;4.54;100.00
65280;BME280;51878;55.748;48.742;2023-04-03T03:48:26;99032.06;;;4.53;100.00
65280;BME280;51878;55.748;48.742;2023-04-03T03:53:28;99048.25;;;4.62;100.00
65280;BME280;51878;55.748;48.742;2023-04-03T03:58:30;99105.25;;;5.08;100.00
65280;BME280;51878;55.748;48.742;2023-04-03T04:03:33;99095.69;;;5.13;100.00
65280;BME280;51878;55.748;48.742;2023-04-03T04:08:42;99083.78;;;5.16;99.80
65280;BME280;51878;55.748;48.742;2023-04-03T04:14:33;99090.44;;;5.38;97.19
65280;BME280;51878;55.748;48.742;2023-04-03T04:19:35;98983.09;;;4.86;94.33
65280;BME280;51878;55.748;48.742;2023-04-03T04:24:37;99110.69;;;5.67;92.91
65280;BME280;51878;55.748;48.742;2023-04-03T04:29:40;99045.91;;;5.44;90.01
65280;BME280;51878;55.748;48.742;2023-04-03T04:34:42;99015.84;;;5.48;86.42
65280;BME280;51878;55.748;48.742;2023-04-03T04:39:44;99089.41;;;6.06;84.06
65280;BME280;51878;55.748;48.742;2023-04-03T04:44:46;99015.91;;;5.81;82.61
65280;BME280;51878;55.748;48.742;2023-04-03T04:49:48;99089.78;;;6.36;79.84
65280;BME280;51878;55.748;48.742;2023-04-03T04:54:51;99098.53;;;6.54;79.77
65280;BME280;51878;55.748;48.742;2023-04-03T04:59:53;99084.53;;;6.67;79.67
65280;BME280;51878;55.748;48.742;2023-04-03T05:04:55;99115.63;;;7.02;76.97
65280;BME280;51878;55.748;48.742;2023-04-03T05:09:57;99069.34;;;6.99;76.78
65280;BME280;51878;55.748;48.742;2023-04-03T05:14:59;99082.34;;;7.35;75.10
65280;BME280;51878;55.748;48.742;2023-04-03T05:20:06;98956.28;;;6.58;72.65
65280;BME280;51878;55.748;48.742;2023-04-03T05:25:08;99052.13;;;7.39;70.37
65280;BME280;51878;55.748;48.742;2023-04-03T05:30:11;99094.63;;;8.00;69.14
65280;BME280;51878;55.748;48.742;2023-04-03T05:35:13;99102.66;;;8.31;67.64
65280;BME280;51878;55.748;48.742;2023-04-03T05:40:16;99091.38;;;8.51;66.96
65280;BME280;51878;55.748;48.742;2023-04-03T05:45:19;99064.03;;;8.68;66.57
65280;BME280;51878;55.748;48.742;2023-04-03T05:50:21;99114.44;;;9.29;63.96
65280;BME280;51878;55.748;48.742;2023-04-03T05:55:26;99094.72;;;9.65;61.05
65280;BME280;51878;55.748;48.742;2023-04-03T06:00:30;99122.66;;;10.23;59.54
65280;BME280;51878;55.748;48.742;2023-04-03T06:05:33;98934.31;;;9.56;58.29
65280;BME280;51878;55.748;48.742;2023-04-03T06:10:35;99099.56;;;10.99;55.47
65280;BME280;51878;55.748;48.742;2023-04-03T06:15:39;99106.84;;;11.26;52.92
65280;BME280;51878;55.748;48.742;2023-04-03T06:20:42;99130.25;;;11.69;52.48
65280;BME280;51878;55.748;48.742;2023-04-03T06:25:44;99116.19;;;11.93;51.45
65280;BME280;51878;55.748;48.742;2023-04-03T06:30:46;98959.63;;;11.17;50.06
65280;BME280;51878;55.748;48.742;2023-04-03T06:35:48;99111.28;;;12.44;47.80
65280;BME280;51878;55.748;48.742;2023-04-03T06:40:51;99106.88;;;12.49;46.93
65280;BME280;51878;55.748;48.742;2023-04-03T06:45:53;99123.84;;;12.91;46.30
65280;BME280;51878;55.748;48.742;2023-04-03T06:50:56;99112.13;;;13.04;45.94
65280;BME280;51878;55.748;48.742;2023-04-03T06:55:58;99069.19;;;13.13;45.10
65280;BME280;51878;55.748;48.742;2023-04-03T07:01:00;99119.59;;;13.55;45.09
65280;BME280;51878;55.748;48.742;2023-04-03T07:06:06;99116.97;;;13.87;43.50
65280;BME280;51878;55.748;48.742;2023-04-03T07:11:09;99111.78;;;14.11;42.56
65280;BME280;51878;55.748;48.742;2023-04-03T07:16:11;99132.81;;;14.42;41.92
65280;BME280;51878;55.748;48.742;2023-04-03T07:21:14;99077.03;;;14.38;41.87
65280;BME280;51878;55.748;48.742;2023-04-03T07:26:16;99053.59;;;14.30;41.34
65280;BME280;51878;55.748;48.742;2023-04-03T07:31:18;99082.19;;;15.03;40.43
65280;BME280;51878;55.748;48.742;2023-04-03T07:36:22;99117.59;;;15.35;39.68
65280;BME280;51878;55.748;48.742;2023-04-03T07:41:24;99086.28;;;15.12;39.70
65280;BME280;51878;55.748;48.742;2023-04-03T07:46:26;99063.94;;;15.40;39.52
65280;BME280;51878;55.748;48.742;2023-04-03T07:51:28;99079.25;;;15.97;38.11
65280;BME280;51878;55.748;48.742;2023-04-03T07:56:31;99080.38;;;16.07;38.22
65280;BME280;51878;55.748;48.742;2023-04-03T08:01:34;99113.09;;;16.44;37.63
65280;BME280;51878;55.748;48.742;2023-04-03T08:06:36;99069.56;;;16.13;36.69
65280;BME280;51878;55.748;48.742;2023-04-03T08:11:47;99129.00;;;16.78;36.37
65280;BME280;51878;55.748;48.742;2023-04-03T08:16:51;99048.16;;;16.63;35.88
65280;BME280;51878;55.748;48.742;2023-04-03T08:21:54;99061.03;;;16.74;35.59
65280;BME280;51878;55.748;48.742;2023-04-03T08:26:57;99100.03;;;17.35;35.06
65280;BME280;51878;55.748;48.742;2023-04-03T08:31:59;99041.63;;;17.23;34.18
65280;BME280;51878;55.748;48.742;2023-04-03T08:37:01;99126.66;;;18.28;33.67
65280;BME280;51878;55.748;48.742;2023-04-03T08:47:42;99033.41;;;18.33;31.14
65280;BME280;51878;55.748;48.742;2023-04-03T08:52:51;99134.44;;;18.93;30.77
65280;BME280;51878;55.748;48.742;2023-04-03T08:58:02;99087.72;;;18.76;30.78
65280;BME280;51878;55.748;48.742;2023-04-03T09:03:05;99083.53;;;18.74;30.97
65280;BME280;51878;55.748;48.742;2023-04-03T09:08:24;99115.44;;;19.26;29.72
65280;BME280;51878;55.748;48.742;2023-04-03T09:13:39;99120.56;;;19.56;29.42
65280;BME280;51878;55.748;48.742;2023-04-03T09:18:50;99098.44;;;19.29;28.89
65280;BME280;51878;55.748;48.742;2023-04-03T09:24:01;98995.09;;;19.11;26.04
65280;BME280;51878;55.748;48.742;2023-04-03T09:29:07;99150.13;;;20.54;25.85
65280;BME280;51878;55.748;48.742;2023-04-03T09:34:22;99080.00;;;20.61;25.30
65280;BME280;51878;55.748;48.742;2023-04-03T09:39:28;99150.50;;;21.22;25.49
65280;BME280;51878;55.748;48.742;2023-04-03T09:44:38;99110.84;;;21.28;24.94
65280;BME280;51878;55.748;48.742;2023-04-03T09:49:49;99135.91;;;21.64;23.83
65280;BME280;51878;55.748;48.742;2023-04-03T09:54:51;99130.41;;;21.69;22.14
65280;BME280;51878;55.748;48.742;2023-04-03T09:59:58;99137.78;;;22.06;21.92
65280;BME280;51878;55.748;48.742;2023-04-03T10:05:02;99128.50;;;22.33;21.50
65280;BME280;51878;55.748;48.742;2023-04-03T10:15:38;99133.31;;;22.94;20.30
65280;BME280;51878;55.748;48.742;2023-04-03T10:20:47;99133.00;;;22.69;18.05
65280;BME280;51878;55.748;48.742;2023-04-03T10:46:47;99139.31;;;23.83;16.73
65280;BME280;51878;55.748;48.742;2023-04-03T10:57:22;99069.72;;;24.05;16.72
65280;BME280;51878;55.748;48.742;2023-04-03T11:02:47;99036.09;;;23.77;16.02
65280;BME280;51878;55.748;48.742;2023-04-03T11:07:53;99120.88;;;24.28;15.01
65280;BME280;51878;55.748;48.742;2023-04-03T11:13:03;99023.34;;;23.81;14.84
65280;BME280;51878;55.748;48.742;2023-04-03T11:18:13;99090.19;;;24.64;15.21
65280;BME280;51878;55.748;48.742;2023-04-03T11:23:38;99117.22;;;25.16;14.37
65280;BME280;51878;55.748;48.742;2023-04-03T11:28:57;99106.78;;;25.86;15.16
65280;BME280;51878;55.748;48.742;2023-04-03T11:34:23;99137.78;;;26.41;14.57
65280;BME280;51878;55.748;48.742;2023-04-03T11:39:35;99104.03;;;26.48;13.62
65280;BME280;51878;55.748;48.742;2023-04-03T11:44:40;99134.69;;;26.86;14.26
65280;BME280;51878;55.748;48.742;2023-04-03T11:50:03;99138.34;;;27.79;13.40
65280;BME280;51878;55.748;48.742;2023-04-03T12:11:34;99136.06;;;27.68;13.49
65280;BME280;51878;55.748;48.742;2023-04-03T12:42:25;99129.16;;;29.07;11.99
65280;BME280;51878;55.748;48.742;2023-04-03T12:47:35;99053.19;;;28.15;12.15
65280;BME280;51878;55.748;48.742;2023-04-03T12:52:41;99064.78;;;28.44;11.55
65280;BME280;51878;55.748;48.742;2023-04-03T12:57:46;99098.75;;;29.05;12.40
65280;BME280;51878;55.748;48.742;2023-04-03T13:02:48;99113.44;;;29.34;11.82
65280;BME280;51878;55.748;48.742;2023-04-03T13:08:02;99069.63;;;28.53;12.08
65280;BME280;51878;55.748;48.742;2023-04-03T13:13:09;99113.31;;;28.57;12.58
65280;BME280;51878;55.748;48.742;2023-04-03T13:18:32;99018.84;;;27.92;12.45
65280;BME280;51878;55.748;48.742;2023-04-03T13:23:38;99120.72;;;28.12;11.72
65280;BME280;51878;55.748;48.742;2023-04-03T13:28:42;99117.66;;;27.39;12.88
65280;BME280;51878;55.748;48.742;2023-04-03T13:34:03;99050.63;;;27.03;11.97
65280;BME280;51878;55.748;48.742;2023-04-03T13:44:34;99130.88;;;27.14;12.29
65280;BME280;51878;55.748;48.742;2023-04-03T13:49:43;99116.72;;;26.59;13.01
65280;BME280;51878;55.748;48.742;2023-04-03T13:54:52;99001.81;;;25.40;13.15
65280;BME280;51878;55.748;48.742;2023-04-03T13:59:54;99063.78;;;25.83;13.46
65280;BME280;51878;55.748;48.742;2023-04-03T14:04:59;99125.06;;;26.59;13.65
65280;BME280;51878;55.748;48.742;2023-04-03T14:10:04;99108.38;;;26.59;13.33
65280;BME280;51878;55.748;48.742;2023-04-03T14:15:19;99122.38;;;26.11;13.16
65280;BME280;51878;55.748;48.742;2023-04-03T14:20:25;99123.09;;;25.97;13.38
65280;BME280;51878;55.748;48.742;2023-04-03T14:25:40;99133.03;;;25.74;14.07
65280;BME280;51878;55.748;48.742;2023-04-03T14:30:42;99129.31;;;24.97;14.44
65280;BME280;51878;55.748;48.742;2023-04-03T14:35:45;99131.28;;;24.51;15.17
65280;BME280;51878;55.748;48.742;2023-04-03T14:40:48;99083.75;;;23.48;15.61
65280;BME280;51878;55.748;48.742;2023-04-03T14:45:50;98998.75;;;21.54;16.32
65280;BME280;51878;55.748;48.742;2023-04-03T14:50:55;99050.78;;;20.60;18.40
65280;BME280;51878;55.748;48.742;2023-04-03T14:56:18;99033.97;;;19.58;20.18
65280;BME280;51878;55.748;48.742;2023-04-03T15:01:23;99088.78;;;18.75;20.57
65280;BME280;51878;55.748;48.742;2023-04-03T15:06:26;98917.00;;;16.73;21.98
65280;BME280;51878;55.748;48.742;2023-04-03T15:11:28;99111.81;;;17.24;22.88
65280;BME280;51878;55.748;48.742;2023-04-03T15:16:30;99126.44;;;16.52;23.57
65280;BME280;51878;55.748;48.742;2023-04-03T15:21:33;99118.97;;;15.99;24.00
65280;BME280;51878;55.748;48.742;2023-04-03T15:26:35;99114.25;;;15.51;23.62
65280;BME280;51878;55.748;48.742;2023-04-03T15:31:37;99112.41;;;15.08;23.71
65280;BME280;51878;55.748;48.742;2023-04-03T15:36:39;99069.22;;;14.41;24.06
65280;BME280;51878;55.748;48.742;2023-04-03T15:41:41;99119.47;;;14.27;24.66
65280;BME280;51878;55.748;48.742;2023-04-03T15:46:47;99143.34;;;13.93;25.03
65280;BME280;51878;55.748;48.742;2023-04-03T15:51:53;99136.53;;;13.64;25.29
65280;BME280;51878;55.748;48.742;2023-04-03T15:56:58;99127.81;;;13.29;25.52
65280;BME280;51878;55.748;48.742;2023-04-03T16:02:05;99109.84;;;12.88;25.75
65280;BME280;51878;55.748;48.742;2023-04-03T16:07:08;99136.41;;;12.72;26.33
65280;BME280;51878;55.748;48.742;2023-04-03T16:12:16;99111.28;;;12.44;26.56
65280;BME280;51878;55.748;48.742;2023-04-03T16:17:18;99113.53;;;12.20;27.08
65280;BME280;51878;55.748;48.742;2023-04-03T16:22:20;99126.91;;;12.15;27.18
65280;BME280;51878;55.748;48.742;2023-04-03T16:27:23;99112.22;;;11.96;27.39
65280;BME280;51878;55.748;48.742;2023-04-03T16:32:30;99067.13;;;11.60;27.58
65280;BME280;51878;55.748;48.742;2023-04-03T16:37:33;99038.56;;;11.23;27.93
65280;BME280;51878;55.748;48.742;2023-04-03T16:42:35;99128.34;;;11.63;28.15
65280;BME280;51878;55.748;48.742;2023-04-03T16:47:38;99053.88;;;11.02;28.33
65280;BME280;51878;55.748;48.742;2023-04-03T16:52:40;99075.13;;;10.92;28.64
65280;BME280;51878;55.748;48.742;2023-04-03T16:57:46;99129.66;;;11.04;29.11
65280;BME280;51878;55.748;48.742;2023-04-03T17:02:49;99059.16;;;10.47;29.06
65280;BME280;51878;55.748;48.742;2023-04-03T17:07:51;99080.03;;;10.53;29.08
65280;BME280;51878;55.748;48.742;2023-04-03T17:12:53;99139.19;;;10.71;29.45
65280;BME280;51878;55.748;48.742;2023-04-03T17:18:00;99017.25;;;9.85;29.55
65280;BME280;51878;55.748;48.742;2023-04-03T17:23:04;99140.88;;;10.51;29.60
65280;BME280;51878;55.748;48.742;2023-04-03T17:28:22;99142.81;;;10.36;29.87
65280;BME280;51878;55.748;48.742;2023-04-03T17:33:29;99090.44;;;9.92;30.23
65280;BME280;51878;55.748;48.742;2023-04-03T17:38:33;99085.38;;;9.67;30.83
65280;BME280;51878;55.748;48.742;2023-04-03T17:43:37;99112.91;;;9.71;31.14
65280;BME280;51878;55.748;48.742;2023-04-03T17:48:43;99161.06;;;9.90;31.71
65280;BME280;51878;55.748;48.742;2023-04-03T17:53:47;99126.19;;;9.66;32.24
65280;BME280;51878;55.748;48.742;2023-04-03T17:58:52;99012.69;;;8.98;32.63
65280;BME280;51878;55.748;48.742;2023-04-03T18:03:56;99130.47;;;9.60;32.47
65280;BME280;51878;55.748;48.742;2023-04-03T18:09:09;99141.78;;;9.64;32.93
65280;BME280;51878;55.748;48.742;2023-04-03T18:14:13;99158.34;;;9.76;32.93
65280;BME280;51878;55.748;48.742;2023-04-03T18:19:16;99141.56;;;9.65;32.78
65280;BME280;51878;55.748;48.742;2023-04-03T18:24:24;99130.63;;;9.73;33.17
65280;BME280;51878;55.748;48.742;2023-04-03T18:29:32;99130.16;;;9.70;32.96
65280;BME280;51878;55.748;48.742;2023-04-03T18:34:34;99128.19;;;9.79;32.94
65280;BME280;51878;55.748;48.742;2023-04-03T18:39:37;99144.59;;;9.92;32.73
65280;BME280;51878;55.748;48.742;2023-04-03T18:44:40;99125.56;;;9.85;32.96
65280;BME280;51878;55.748;48.742;2023-04-03T18:49:44;99120.13;;;9.85;32.78
65280;BME280;51878;55.748;48.742;2023-04-03T18:54:46;99131.69;;;9.94;32.89
65280;BME280;51878;55.748;48.742;2023-04-03T18:59:48;99145.13;;;10.02;32.83
65280;BME280;51878;55.748;48.742;2023-04-03T19:04:58;99131.69;;;9.94;32.72
65280;BME280;51878;55.748;48.742;2023-04-03T19:10:03;99128.63;;;9.97;32.67
65280;BME280;51878;55.748;48.742;2023-04-03T19:15:06;99114.38;;;9.88;32.64
65280;BME280;51878;55.748;48.742;2023-04-03T19:20:09;99137.66;;;10.04;32.83
65280;BME280;51878;55.748;48.742;2023-04-03T19:25:12;99063.06;;;9.65;32.88
65280;BME280;51878;55.748;48.742;2023-04-03T19:30:16;98946.34;;;8.81;32.58
65280;BME280;51878;55.748;48.742;2023-04-03T19:35:21;99085.38;;;9.67;32.95
65280;BME280;51878;55.748;48.742;2023-04-03T19:40:23;98983.88;;;9.05;32.87
65280;BME280;51878;55.748;48.742;2023-04-03T19:45:26;99110.81;;;9.88;32.75
65280;BME280;51878;55.748;48.742;2023-04-03T19:50:32;98939.53;;;8.70;33.21
65280;BME280;51878;55.748;48.742;2023-04-03T19:55:34;99148.34;;;9.91;33.36
65280;BME280;51878;55.748;48.742;2023-04-03T20:00:37;99072.16;;;9.43;33.21
65280;BME280;51878;55.748;48.742;2023-04-03T20:05:39;99023.88;;;9.10;33.29
65280;BME280;51878;55.748;48.742;2023-04-03T20:10:42;99069.38;;;9.36;33.41
65280;BME280;51878;55.748;48.742;2023-04-03T20:15:44;99061.16;;;9.29;33.55
65280;BME280;51878;55.748;48.742;2023-04-03T20:20:57;99133.72;;;9.70;33.95
65280;BME280;51878;55.748;48.742;2023-04-03T20:26:00;99070.97;;;9.30;33.74
65280;BME280;51878;55.748;48.742;2023-04-03T20:31:10;99145.56;;;9.69;33.79
65280;BME280;51878;55.748;48.742;2023-04-03T20:36:15;98993.84;;;8.75;33.79
65280;BME280;51878;55.748;48.742;2023-04-03T20:41:18;99063.88;;;9.15;34.31
65280;BME280;51878;55.748;48.742;2023-04-03T20:46:21;99091.41;;;9.33;33.96
65280;BME280;51878;55.748;48.742;2023-04-03T20:51:26;99101.19;;;9.49;34.33
65280;BME280;51878;55.748;48.742;2023-04-03T20:56:30;99045.50;;;9.25;34.13
65280;BME280;51878;55.748;48.742;2023-04-03T21:01:35;98973.19;;;8.82;33.77
65280;BME280;51878;55.748;48.742;2023-04-03T21:23:04;99139.75;;;9.87;33.87
65280;BME280;51878;55.748;48.742;2023-04-03T21:28:07;99141.06;;;9.91;34.07
65280;BME280;51878;55.748;48.742;2023-04-03T21:33:09;99054.44;;;9.40;33.94
65280;BME280;51878;55.748;48.742;2023-04-03T21:38:13;99065.16;;;9.48;34.12
65280;BME280;51878;55.748;48.742;2023-04-03T21:43:17;99109.16;;;9.72;34.05
65280;BME280;51878;55.748;48.742;2023-04-03T21:48:19;99082.41;;;9.47;34.23
65280;BME280;51878;55.748;48.742;2023-04-03T21:53:22;99059.97;;;9.17;34.43
65280;BME280;51878;55.748;48.742;2023-04-03T21:58:31;99089.81;;;9.24;34.79
65280;BME280;51878;55.748;48.742;2023-04-03T22:03:34;99107.91;;;9.23;35.58
65280;BME280;51878;55.748;48.742;2023-04-03T22:08:36;99036.63;;;8.57;35.50
65280;BME280;51878;55.748;48.742;2023-04-03T22:13:39;99073.63;;;8.56;35.82
65280;BME280;51878;55.748;48.742;2023-04-03T22:18:41;99094.09;;;8.51;36.62
65280;BME280;51878;55.748;48.742;2023-04-03T22:23:44;99130.25;;;8.50;37.06
65280;BME280;51878;55.748;48.742;2023-04-03T22:28:46;99064.75;;;8.01;37.12
65280;BME280;51878;55.748;48.742;2023-04-03T22:33:48;99066.00;;;7.91;37.75
65280;BME280;51878;55.748;48.742;2023-04-03T22:38:50;99155.84;;;8.31;37.82
65280;BME280;51878;55.748;48.742;2023-04-03T22:43:52;99128.34;;;8.04;38.38
65280;BME280;51878;55.748;48.742;2023-04-03T22:48:54;99116.81;;;7.87;39.36
65280;BME280;51878;55.748;48.742;2023-04-03T22:53:56;99137.22;;;7.90;39.27
65280;BME280;51878;55.748;48.742;2023-04-03T22:58:58;99080.97;;;7.39;39.73
65280;BME280;51878;55.748;48.742;2023-04-03T23:04:00;99145.09;;;7.60;40.43
65280;BME280;51878;55.748;48.742;2023-04-03T23:09:02;99027.28;;;6.73;41.82
65280;BME280;51878;55.748;48.742;2023-04-03T23:14:04;99159.84;;;7.41;42.30
65280;BME280;51878;55.748;48.742;2023-04-03T23:19:07;99152.78;;;7.32;42.57
65280;BME280;51878;55.748;48.742;2023-04-03T23:24:09;99158.38;;;7.30;43.06
65280;BME280;51878;55.748;48.742;2023-04-03T23:29:12;99137.00;;;7.12;43.54
65280;BME280;51878;55.748;48.742;2023-04-03T23:34:14;99090.91;;;6.91;43.57
65280;BME280;51878;55.748;48.742;2023-04-03T23:39:16;99144.06;;;7.21;43.50
65280;BME280;51878;55.748;48.742;2023-04-03T23:44:20;99059.31;;;6.68;43.99
65280;BME280;51878;55.748;48.742;2023-04-03T23:49:22;99110.81;;;6.81;44.94
65280;BME280;51878;55.748;48.742;2023-04-03T23:54:24;99139.56;;;6.89;45.15
65280;BME280;51878;55.748;48.742;2023-04-03T23:59:26;99092.97;;;6.64;45.32
